createdAt,value
2018-02-08T00:01:29.440Z,91.47
2018-02-08T00:03:57.877Z,84.78
2018-02-08T00:06:26.280Z,81.07
2018-02-08T00:08:54.705Z,86.85
2018-02-08T00:11:23.142Z,86.78
2018-02-08T00:13:51.624Z,84.90
2018-02-08T00:16:20.021Z,78.95
2018-02-08T00:18:48.513Z,78.93
2018-02-08T00:21:16.909Z,95.80
2018-02-08T00:23:45.380Z,97.53
2018-02-08T00:26:13.847Z,92.12
2018-02-08T00:28:42.247Z,83.97
2018-02-08T00:31:10.649Z,99.93
2018-02-08T00:33:39.065Z,109.57
2018-02-08T00:36:07.468Z,108.55
2018-02-08T00:38:35.939Z,104.63
2018-02-08T00:41:04.365Z,102.78
2018-02-08T00:43:32.758Z,86.28
2018-02-08T00:46:01.187Z,91.07
2018-02-08T00:48:29.639Z,95.00
2018-02-08T00:50:58.114Z,94.78
2018-02-08T00:53:26.610Z,104.45
2018-02-08T00:55:55.031Z,100.68
2018-02-08T00:58:23.431Z,88.68
2018-02-08T01:00:51.843Z,97.60
2018-02-08T01:03:20.309Z,82.45
2018-02-08T01:05:48.710Z,95.87
2018-02-08T01:08:17.127Z,101.90
2018-02-08T01:10:45.545Z,102.93
2018-02-08T01:13:13.940Z,145.35
2018-02-08T01:15:42.425Z,113.85
2018-02-08T01:18:10.919Z,130.05
2018-02-08T01:20:39.332Z,120.32
2018-02-08T01:23:07.758Z,86.68
2018-02-08T01:25:36.187Z,105.15
2018-02-08T01:28:04.834Z,102.70
2018-02-08T01:30:33.334Z,160.35
2018-02-08T01:33:01.738Z,111.30
2018-02-08T01:35:30.138Z,100.60
2018-02-08T01:37:58.532Z,88.82
2018-02-08T01:40:27.090Z,87.55
2018-02-08T01:42:55.492Z,82.62
2018-02-08T01:45:23.902Z,82.07
2018-02-08T01:47:52.298Z,84.25
2018-02-08T01:50:20.702Z,77.10
2018-02-08T01:52:49.191Z,73.72
2018-02-08T01:55:17.590Z,74.00
2018-02-08T01:57:46.011Z,83.35
2018-02-08T02:00:14.419Z,73.00
2018-02-08T02:02:42.901Z,82.97
2018-02-08T02:05:11.380Z,75.85
2018-02-08T02:07:39.782Z,70.93
2018-02-08T02:10:08.180Z,89.85
2018-02-08T02:12:36.565Z,73.80
2018-02-08T02:15:05.119Z,70.78
2018-02-08T02:17:33.590Z,88.28
2018-02-08T02:20:02.004Z,67.93
2018-02-08T02:22:30.426Z,69.68
2018-02-08T02:24:58.834Z,77.70
2018-02-08T02:27:27.248Z,90.12
2018-02-08T02:29:55.697Z,76.10
2018-02-08T02:32:24.122Z,77.57
2018-02-08T02:34:52.672Z,74.28
2018-02-08T02:37:21.176Z,76.75
2018-02-08T02:39:49.563Z,66.97
2018-02-08T02:42:17.971Z,74.65
2018-02-08T02:44:46.387Z,59.35
2018-02-08T02:47:14.877Z,88.10
2018-02-08T02:49:43.295Z,70.93
2018-02-08T02:52:11.702Z,72.43
2018-02-08T02:54:40.115Z,81.03
2018-02-08T02:57:08.587Z,85.78
2018-02-08T02:59:37.035Z,70.70
2018-02-08T03:02:05.459Z,74.87
2018-02-08T03:04:33.946Z,66.65
2018-02-08T03:07:02.366Z,76.68
2018-02-08T03:09:30.775Z,64.20
2018-02-08T03:11:59.189Z,95.43
2018-02-08T03:14:27.586Z,73.62
2018-02-08T03:16:56.009Z,81.37
2018-02-08T03:19:24.414Z,87.25
2018-02-08T03:21:52.882Z,85.18
2018-02-08T03:24:21.292Z,93.80
2018-02-08T03:26:49.700Z,76.55
2018-02-08T03:29:18.120Z,106.18
2018-02-08T03:31:46.529Z,65.37
2018-02-08T03:34:14.969Z,61.13
2018-02-08T03:36:43.374Z,102.40
2018-02-08T03:39:11.915Z,70.18
2018-02-08T03:41:40.406Z,84.97
2018-02-08T03:44:08.820Z,105.78
2018-02-08T03:46:37.233Z,128.60
2018-02-08T03:49:05.634Z,95.38
2018-02-08T03:51:34.383Z,97.25
2018-02-08T03:54:02.799Z,87.62
2018-02-08T03:56:31.201Z,78.20
2018-02-08T03:58:59.673Z,67.22
2018-02-08T04:01:28.135Z,112.00
2018-02-08T04:03:56.562Z,66.40
2018-02-08T04:06:24.951Z,77.43
2018-02-08T04:08:53.393Z,77.37
2018-02-08T04:11:21.798Z,115.07
2018-02-08T04:13:50.266Z,80.60
2018-02-08T04:16:18.669Z,68.80
2018-02-08T04:18:47.224Z,84.37
2018-02-08T04:21:15.659Z,63.55
2018-02-08T04:23:44.098Z,56.45
2018-02-08T04:26:12.539Z,55.22
2018-02-08T04:28:40.943Z,69.22
2018-02-08T04:31:09.710Z,66.00
2018-02-08T04:33:38.099Z,52.67
2018-02-08T04:36:06.585Z,52.08
2018-02-08T04:38:46.876Z,47.97
2018-02-08T04:41:26.888Z,50.00
2018-02-08T04:47:07.653Z,49.75
2018-02-08T04:49:36.059Z,38.65
2018-02-08T04:52:04.484Z,46.30
2018-02-08T04:54:32.875Z,51.08
2018-02-08T04:57:01.647Z,49.45
2018-02-08T04:59:30.045Z,48.55
2018-02-08T05:02:01.769Z,44.28
2018-02-08T05:04:30.178Z,49.35
2018-02-08T05:06:58.594Z,45.28
2018-02-08T05:09:27.135Z,45.40
2018-02-08T05:11:55.556Z,48.78
2018-02-08T05:14:23.985Z,42.10
2018-02-08T05:16:52.438Z,45.28
2018-02-08T05:19:20.894Z,40.70
2018-02-08T05:21:49.300Z,41.47
2018-02-08T05:24:18.051Z,47.00
2018-02-08T05:26:46.465Z,37.45
2018-02-08T05:29:14.942Z,39.10
2018-02-08T05:31:44.316Z,63.35
2018-02-08T05:34:12.696Z,47.20
2018-02-08T05:36:41.066Z,39.88
2018-02-08T05:39:09.573Z,42.47
2018-02-08T05:41:37.993Z,45.80
2018-02-08T05:44:06.455Z,46.63
2018-02-08T05:46:34.874Z,48.17
2018-02-08T05:49:03.299Z,48.92
2018-02-08T05:51:31.756Z,49.35
2018-02-08T05:54:00.164Z,41.88
2018-02-08T05:56:28.587Z,49.50
2018-02-08T05:58:57.078Z,56.35
2018-02-08T06:01:25.518Z,49.13
2018-02-08T06:03:53.956Z,38.13
2018-02-08T06:06:22.807Z,43.38
2018-02-08T06:08:51.311Z,41.28
2018-02-08T06:11:19.701Z,40.80
2018-02-08T06:13:48.278Z,44.38
2018-02-08T06:16:16.693Z,57.08
2018-02-08T06:18:45.118Z,53.87
2018-02-08T06:21:13.587Z,57.30
2018-02-08T06:23:41.996Z,39.53
2018-02-08T06:26:10.416Z,46.37
2018-02-08T06:28:38.888Z,44.97
2018-02-08T06:31:07.299Z,43.60
2018-02-08T06:33:35.717Z,51.42
2018-02-08T06:36:04.106Z,50.83
2018-02-08T06:38:32.522Z,50.20
2018-02-08T06:41:01.171Z,45.50
2018-02-08T06:43:29.596Z,57.25
2018-02-08T06:45:58.009Z,56.22
2018-02-08T06:48:26.473Z,49.72
2018-02-08T06:50:54.891Z,50.05
2018-02-08T06:53:23.310Z,65.50
2018-02-08T06:55:51.764Z,56.95
2018-02-08T06:58:20.167Z,60.95
2018-02-08T07:00:48.577Z,60.42
2018-02-08T07:03:17.005Z,59.67
2018-02-08T07:05:45.511Z,58.60
2018-02-08T07:08:13.988Z,56.67
2018-02-08T07:10:42.411Z,67.70
2018-02-08T07:13:10.834Z,65.70
2018-02-08T07:15:39.251Z,75.68
2018-02-08T07:18:07.671Z,64.85
2018-02-08T07:20:36.152Z,65.57
2018-02-08T07:23:04.557Z,62.80
2018-02-08T07:25:33.049Z,59.03
2018-02-08T07:28:01.448Z,60.03
2018-02-08T07:30:29.854Z,68.37
2018-02-08T07:32:58.313Z,58.58
2018-02-08T07:35:26.723Z,60.38
2018-02-08T07:37:55.152Z,60.65
2018-02-08T07:40:23.576Z,62.28
2018-02-08T07:42:52.003Z,66.60
2018-02-08T07:45:20.495Z,61.20
2018-02-08T07:47:48.890Z,58.65
2018-02-08T07:50:17.324Z,67.95
2018-02-08T07:52:45.725Z,66.43
2018-02-08T07:55:14.135Z,73.82
2018-02-08T07:57:42.605Z,76.37
2018-02-08T08:00:11.026Z,71.95
2018-02-08T08:02:39.450Z,63.97
2018-02-08T08:05:07.859Z,69.65
2018-02-08T08:07:36.254Z,61.63
2018-02-08T08:10:05.140Z,68.12
2018-02-08T08:12:33.551Z,66.18
2018-02-08T08:15:02.043Z,61.63
2018-02-08T08:17:30.446Z,68.53
2018-02-08T08:19:58.978Z,52.67
2018-02-08T08:22:27.459Z,49.92
2018-02-08T08:24:55.944Z,62.83
2018-02-08T08:27:24.365Z,62.95
2018-02-08T08:29:52.786Z,57.55
2018-02-08T08:32:21.188Z,73.45
2018-02-08T08:34:50.074Z,71.82
2018-02-08T08:37:18.559Z,76.65
2018-02-08T08:39:46.950Z,69.43
2018-02-08T08:42:15.390Z,70.25
2018-02-08T08:44:43.808Z,59.58
2018-02-08T08:47:12.197Z,55.65
2018-02-08T08:49:40.607Z,60.28
2018-02-08T08:52:09.036Z,64.37
2018-02-08T08:54:37.572Z,66.62
2018-02-08T08:57:06.020Z,65.72
2018-02-08T08:59:34.423Z,63.00
2018-02-08T09:02:02.829Z,58.85
2018-02-08T09:04:31.244Z,66.62
2018-02-08T09:06:59.702Z,56.47
2018-02-08T09:09:28.190Z,59.75
2018-02-08T09:11:56.620Z,56.67
2018-02-08T09:14:25.021Z,53.58
2018-02-08T09:16:53.410Z,61.92
2018-02-08T09:19:21.964Z,72.40
2018-02-08T09:21:50.371Z,59.10
2018-02-08T09:24:18.840Z,54.10
2018-02-08T09:26:47.270Z,55.22
2018-02-08T09:29:15.754Z,60.20
2018-02-08T09:31:44.177Z,54.90
2018-02-08T09:34:12.586Z,55.88
2018-02-08T09:36:41.011Z,61.53
2018-02-08T09:39:09.425Z,58.97
2018-02-08T09:41:37.878Z,57.35
2018-02-08T09:44:06.294Z,49.50
2018-02-08T09:46:34.769Z,57.07
2018-02-08T09:49:03.169Z,64.73
2018-02-08T09:51:31.586Z,55.53
2018-02-08T09:54:00.019Z,52.87
2018-02-08T09:56:28.421Z,50.17
2018-02-08T09:58:57.253Z,50.53
2018-02-08T10:01:25.666Z,51.70
2018-02-08T10:03:54.075Z,50.47
2018-02-08T10:06:22.504Z,52.97
2018-02-08T10:08:50.962Z,56.73
2018-02-08T10:11:19.424Z,56.57
2018-02-08T10:13:47.822Z,51.13
2018-02-08T10:16:16.233Z,52.00
2018-02-08T10:18:44.651Z,49.07
2018-02-08T10:21:13.094Z,48.20
2018-02-08T10:23:41.561Z,51.10
2018-02-08T10:26:09.983Z,46.27
2018-02-08T10:28:38.434Z,44.20
2018-02-08T10:31:06.835Z,45.40
2018-02-08T10:33:35.268Z,44.70
2018-02-08T10:36:03.811Z,44.03
2018-02-08T10:38:32.216Z,43.93
2018-02-08T10:41:00.656Z,48.03
2018-02-08T10:43:29.055Z,47.93
2018-02-08T10:45:57.479Z,43.80
2018-02-08T10:48:26.055Z,46.90
2018-02-08T10:50:54.461Z,43.67
2018-02-08T10:53:22.889Z,43.50
2018-02-08T10:55:51.306Z,52.10
2018-02-08T10:58:19.725Z,49.07
2018-02-08T11:00:48.193Z,47.67
2018-02-08T11:03:16.587Z,51.10
2018-02-08T11:05:45.011Z,49.07
2018-02-08T11:08:13.415Z,47.30
2018-02-08T11:10:41.822Z,56.23
2018-02-08T11:13:10.297Z,49.40
2018-02-08T11:15:38.701Z,57.23
2018-02-08T11:18:07.108Z,53.57
2018-02-08T11:20:35.532Z,54.72
2018-02-08T11:23:03.940Z,57.15
2018-02-08T11:25:32.419Z,54.92
2018-02-08T11:28:00.896Z,52.08
2018-02-08T11:30:29.298Z,57.42
2018-02-08T11:32:57.719Z,54.35
2018-02-08T11:35:26.140Z,60.83
2018-02-08T11:37:54.641Z,57.25
2018-02-08T11:40:23.049Z,54.90
2018-02-08T11:42:51.474Z,56.10
2018-02-08T11:45:19.881Z,56.65
2018-02-08T11:47:48.306Z,61.58
2018-02-08T11:50:16.842Z,57.13
2018-02-08T11:52:45.336Z,50.45
2018-02-08T11:55:13.778Z,52.80
2018-02-08T11:57:42.170Z,57.13
2018-02-08T12:00:10.629Z,55.78
2018-02-08T12:02:39.163Z,49.83
2018-02-08T12:05:07.571Z,54.40
2018-02-08T12:07:35.987Z,55.40
2018-02-08T12:10:04.423Z,54.42
2018-02-08T12:12:32.861Z,53.53
2018-02-08T12:15:01.381Z,48.17
2018-02-08T12:17:29.843Z,55.72
2018-02-08T12:19:58.258Z,48.93
2018-02-08T12:22:26.675Z,52.77
2018-02-08T12:24:55.157Z,48.73
2018-02-08T12:27:23.710Z,48.47
2018-02-08T12:29:52.107Z,44.20
2018-02-08T12:32:20.553Z,46.77
2018-02-08T12:34:48.952Z,45.83
2018-02-08T12:37:17.374Z,52.63
2018-02-08T12:39:45.870Z,46.93
2018-02-08T12:42:14.290Z,43.67
2018-02-08T12:44:42.709Z,52.90
2018-02-08T12:47:11.129Z,52.47
2018-02-08T12:49:39.542Z,46.23
2018-02-08T12:52:08.040Z,32.97
2018-02-08T12:54:36.461Z,36.47
2018-02-08T12:57:04.911Z,35.57
2018-02-08T12:59:33.400Z,38.30
2018-02-08T13:02:01.846Z,34.80
2018-02-08T13:04:30.320Z,36.80
2018-02-08T13:06:58.720Z,32.60
2018-02-08T13:09:27.141Z,34.90
2018-02-08T13:11:55.598Z,33.13
2018-02-08T13:14:24.007Z,35.23
2018-02-08T13:16:52.487Z,31.90
2018-02-08T13:19:20.895Z,32.13
2018-02-08T13:21:49.313Z,32.80
2018-02-08T13:24:17.736Z,30.67
2018-02-08T13:26:46.333Z,26.13
2018-02-08T13:29:15.342Z,27.60
2018-02-08T13:31:45.261Z,23.63
2018-02-08T13:34:13.829Z,32.73
2018-02-08T13:36:42.862Z,33.80
2018-02-08T13:42:20.631Z,36.20
2018-02-08T13:44:49.034Z,37.65
2018-02-08T13:47:34.150Z,44.08
2018-02-08T13:53:35.487Z,44.17
2018-02-08T13:56:04.331Z,47.42
2018-02-08T14:01:40.729Z,46.42
2018-02-08T14:04:09.942Z,46.72
2018-02-08T14:06:38.545Z,52.42
2018-02-08T14:09:06.955Z,54.08
2018-02-08T14:11:35.422Z,51.42
2018-02-08T14:14:03.819Z,54.97
2018-02-08T14:16:32.264Z,45.45
2018-02-08T14:19:00.770Z,37.47
2018-02-08T14:21:29.187Z,50.28
2018-02-08T14:23:57.677Z,52.60
2018-02-08T14:26:26.162Z,54.20
2018-02-08T14:28:54.560Z,54.17
2018-02-08T14:31:23.339Z,48.47
2018-02-08T14:33:51.716Z,49.70
2018-02-08T14:36:20.166Z,49.65
2018-02-08T14:38:49.470Z,54.60
2018-02-08T14:41:17.896Z,49.45
2018-02-08T14:43:46.429Z,51.47
2018-02-08T14:46:14.852Z,46.30
2018-02-08T14:48:43.359Z,53.55
2018-02-08T14:51:11.788Z,50.90
2018-02-08T14:53:40.198Z,54.70
2018-02-08T14:56:08.753Z,51.22
2018-02-08T14:58:37.273Z,55.90
2018-02-08T15:01:05.670Z,49.75
2018-02-08T15:03:34.134Z,55.75
2018-02-08T15:06:05.051Z,47.85
2018-02-08T15:08:33.549Z,56.33
2018-02-08T15:11:01.963Z,51.40
2018-02-08T15:13:32.195Z,58.45
2018-02-08T15:16:00.609Z,54.35
2018-02-08T15:18:29.038Z,51.42
2018-02-08T15:20:57.885Z,59.17
2018-02-08T15:23:26.304Z,52.00
2018-02-08T15:25:54.796Z,57.75
2018-02-08T15:28:23.182Z,63.15
2018-02-08T15:30:51.603Z,56.97
2018-02-08T15:33:20.085Z,55.30
2018-02-08T15:35:48.602Z,51.30
2018-02-08T15:38:17.041Z,53.10
2018-02-08T15:40:45.593Z,55.65
2018-02-08T15:43:14.382Z,58.72
2018-02-08T15:45:44.869Z,61.03
2018-02-08T15:48:13.252Z,59.22
2018-02-08T15:50:41.812Z,56.33
2018-02-08T15:53:10.335Z,60.50
2018-02-08T15:55:38.753Z,55.12
2018-02-08T15:58:07.231Z,62.28
2018-02-08T16:00:36.414Z,57.22
2018-02-08T16:03:05.072Z,62.65
2018-02-08T16:05:33.459Z,64.43
2018-02-08T16:08:01.845Z,55.05
2018-02-08T16:10:30.253Z,60.47
2018-02-08T16:12:59.072Z,59.95
2018-02-08T16:15:27.649Z,57.85
2018-02-08T16:17:56.092Z,62.10
2018-02-08T16:20:24.542Z,62.28
2018-02-08T16:22:52.954Z,56.28
2018-02-08T16:25:21.363Z,61.42
2018-02-08T16:27:50.777Z,74.78
2018-02-08T16:30:19.401Z,69.07
2018-02-08T16:32:47.820Z,75.75
2018-02-08T16:35:16.381Z,66.55
2018-02-08T16:37:44.831Z,81.00
2018-02-08T16:40:13.307Z,67.40
2018-02-08T16:42:41.724Z,72.18
2018-02-08T16:45:10.141Z,66.05
2018-02-08T16:47:38.531Z,70.28
2018-02-08T16:50:07.126Z,66.60
2018-02-08T16:52:35.676Z,72.55
2018-02-08T16:55:04.120Z,59.28
2018-02-08T16:57:32.671Z,73.22
2018-02-08T17:00:01.060Z,60.10
2018-02-08T17:02:29.462Z,62.92
2018-02-08T17:04:58.349Z,62.00
2018-02-08T17:07:26.875Z,74.25
2018-02-08T17:09:55.287Z,65.37
2018-02-08T17:12:23.792Z,69.12
2018-02-08T17:14:52.183Z,64.05
2018-02-08T17:17:20.672Z,64.97
2018-02-08T17:19:49.061Z,67.43
2018-02-08T17:22:17.587Z,61.65
2018-02-08T17:24:46.164Z,65.68
2018-02-08T17:27:15.012Z,78.50
2018-02-08T17:29:43.787Z,75.93
2018-02-08T17:32:12.295Z,69.57
2018-02-08T17:34:40.724Z,79.97
2018-02-08T17:37:09.147Z,80.78
2018-02-08T17:39:37.590Z,78.60
2018-02-08T17:42:06.152Z,69.62
2018-02-08T17:44:34.577Z,71.30
2018-02-08T17:47:02.975Z,68.03
2018-02-08T17:49:31.496Z,75.60
2018-02-08T17:52:00.018Z,62.45
2018-02-08T17:54:29.295Z,75.25
2018-02-08T17:56:57.706Z,73.28
2018-02-08T17:59:26.179Z,73.15
2018-02-08T18:01:54.579Z,69.93
2018-02-08T18:04:23.013Z,78.43
2018-02-08T18:06:52.350Z,70.40
2018-02-08T18:09:20.899Z,72.60
2018-02-08T18:11:49.315Z,71.28
2018-02-08T18:16:52.490Z,71.22
2018-02-08T18:19:21.020Z,69.93
2018-02-08T18:21:49.498Z,71.40
2018-02-08T18:24:17.990Z,69.65
2018-02-08T18:26:46.490Z,82.30
2018-02-08T18:29:14.875Z,83.75
2018-02-08T18:31:43.411Z,83.53
2018-02-08T18:34:11.828Z,86.45
2018-02-08T18:36:40.223Z,84.75
2018-02-08T18:39:08.707Z,87.47
2018-02-08T18:41:38.058Z,95.38
2018-02-08T18:44:06.546Z,89.43
2018-02-08T18:46:34.958Z,90.57
2018-02-08T18:49:03.459Z,91.53
2018-02-08T18:51:31.849Z,91.15
2018-02-08T18:54:00.280Z,91.40
2018-02-08T18:56:28.780Z,81.95
2018-02-08T18:58:58.248Z,82.62
2018-02-08T19:01:26.715Z,78.35
2018-02-08T19:03:55.162Z,87.20
2018-02-08T19:06:23.529Z,74.65
2018-02-08T19:08:51.956Z,84.25
2018-02-08T19:11:20.437Z,77.45
2018-02-08T19:13:48.927Z,85.07
2018-02-08T19:16:17.459Z,88.43
2018-02-08T19:18:45.858Z,86.35
2018-02-08T19:21:14.246Z,88.62
2018-02-08T19:23:42.852Z,97.15
2018-02-08T19:26:11.309Z,91.80
2018-02-08T19:28:40.461Z,79.40
2018-02-08T19:31:08.950Z,84.10
2018-02-08T19:33:37.326Z,92.78
2018-02-08T19:36:05.746Z,94.65
2018-02-08T19:38:34.205Z,83.20
2018-02-08T19:41:02.666Z,99.80
2018-02-08T19:43:31.087Z,88.20
2018-02-08T19:45:59.554Z,85.25
2018-02-08T19:48:27.965Z,84.90
2018-02-08T19:50:56.455Z,74.53
2018-02-08T19:53:24.872Z,88.68
2018-02-08T19:55:53.425Z,72.78
2018-02-08T19:58:21.879Z,86.60
2018-02-08T20:00:50.288Z,82.40
2018-02-08T20:03:18.769Z,75.07
2018-02-08T20:05:47.165Z,74.30
2018-02-08T20:08:15.843Z,89.47
2018-02-08T20:10:44.231Z,79.40
2018-02-08T20:13:13.436Z,75.47
2018-02-08T20:15:41.948Z,79.82
2018-02-08T20:18:10.410Z,73.55
2018-02-08T20:20:38.943Z,82.03
2018-02-08T20:23:07.361Z,73.40
2018-02-08T20:25:41.883Z,66.93
2018-02-08T20:28:10.431Z,81.20
2018-02-08T20:30:38.848Z,73.07
2018-02-08T20:33:07.288Z,74.60
2018-02-08T20:35:35.755Z,60.42
2018-02-08T20:38:04.247Z,67.50
2018-02-08T20:40:32.654Z,74.47
2018-02-08T20:43:07.578Z,69.12
2018-02-08T20:45:35.982Z,75.80
2018-02-08T20:48:04.396Z,73.30
2018-02-08T20:50:32.852Z,76.40
2018-02-08T20:53:01.276Z,73.97
2018-02-08T20:55:29.779Z,70.68
2018-02-08T20:57:58.206Z,79.87
2018-02-08T21:00:26.732Z,65.45
2018-02-08T21:02:55.131Z,69.43
2018-02-08T21:05:23.579Z,82.28
2018-02-08T21:07:52.040Z,66.60
2018-02-08T21:10:20.425Z,74.90
2018-02-08T21:12:48.936Z,70.30
2018-02-08T21:15:17.412Z,74.00
2018-02-08T21:17:45.882Z,77.68
2018-02-08T21:20:14.362Z,75.65
2018-02-08T21:22:42.789Z,70.87
2018-02-08T21:25:11.303Z,75.70
2018-02-08T21:27:39.719Z,74.00
2018-02-08T21:30:08.108Z,79.90
2018-02-08T21:32:36.653Z,71.80
2018-02-08T21:35:05.161Z,76.78
2018-02-08T21:37:33.882Z,73.22
2018-02-08T21:40:02.360Z,77.10
2018-02-08T21:42:30.884Z,77.43
2018-02-08T21:44:59.330Z,71.43
2018-02-08T21:47:27.758Z,65.53
2018-02-08T21:49:56.232Z,68.57
2018-02-08T21:52:24.704Z,78.35
2018-02-08T21:54:53.715Z,65.40
2018-02-08T21:57:22.165Z,69.25
2018-02-08T21:59:50.639Z,62.33
2018-02-08T22:02:19.170Z,73.35
2018-02-08T22:04:47.681Z,66.28
2018-02-08T22:07:16.098Z,70.10
2018-02-08T22:09:44.698Z,73.35
2018-02-08T22:12:13.957Z,84.45
2018-02-08T22:14:42.435Z,81.35
2018-02-08T22:17:10.965Z,67.40
2018-02-08T22:19:39.381Z,75.47
2018-02-08T22:22:07.804Z,68.87
2018-02-08T22:24:36.206Z,67.03
2018-02-08T22:27:04.687Z,69.57
2018-02-08T22:29:33.104Z,71.05
2018-02-08T22:32:01.667Z,77.10
2018-02-08T22:34:30.035Z,70.32
2018-02-08T22:36:58.480Z,70.50
2018-02-08T22:39:26.864Z,61.05
2018-02-08T22:41:55.378Z,55.90
2018-02-08T22:44:23.794Z,59.83
2018-02-08T22:46:52.228Z,54.97
2018-02-08T22:49:20.716Z,64.43
2018-02-08T22:51:49.143Z,57.55
2018-02-08T22:54:17.608Z,66.00
2018-02-08T22:56:46.028Z,63.53
2018-02-08T22:59:14.462Z,67.00
2018-02-08T23:01:43.071Z,63.33
2018-02-08T23:04:11.484Z,64.93
2018-02-08T23:06:40.028Z,59.30
2018-02-08T23:09:08.548Z,66.80
2018-02-08T23:11:36.966Z,64.95
2018-02-08T23:14:05.527Z,67.55
2018-02-08T23:16:34.018Z,65.68
2018-02-08T23:19:02.491Z,61.90
2018-02-08T23:21:30.956Z,58.20
2018-02-08T23:23:59.381Z,64.62
2018-02-08T23:26:27.784Z,57.58
2018-02-08T23:28:56.208Z,57.80
2018-02-08T23:31:24.712Z,62.10
2018-02-08T23:33:53.106Z,65.28
2018-02-08T23:36:21.581Z,58.10
2018-02-08T23:38:50.074Z,60.03
2018-02-08T23:41:18.484Z,65.97
2018-02-08T23:43:46.931Z,56.50
2018-02-08T23:46:15.329Z,58.97
2018-02-08T23:48:43.834Z,62.60
2018-02-08T23:51:12.257Z,64.15
2018-02-08T23:53:40.650Z,58.85
2018-02-08T23:56:09.079Z,64.35
2018-02-08T23:58:37.478Z,68.35
